createdAt,value
2023-03-30T00:00:18.719Z,85.91
2023-03-30T00:02:49.765Z,86.85
2023-03-30T00:05:20.453Z,87.32
2023-03-30T00:07:48.948Z,86.46
2023-03-30T00:10:22.492Z,86.98
2023-03-30T00:12:52.994Z,87.45
2023-03-30T00:15:26.858Z,87.44
2023-03-30T00:17:55.809Z,86.89
2023-03-30T00:20:24.352Z,86.55
2023-03-30T00:22:52.493Z,86.82
2023-03-30T00:25:20.644Z,87.42
2023-03-30T00:27:48.593Z,87.53
2023-03-30T00:30:20.077Z,87.50
2023-03-30T00:32:48.464Z,87.65
2023-03-30T00:35:16.514Z,87.63
2023-03-30T00:37:48.142Z,88.02
2023-03-30T00:40:18.182Z,87.23
2023-03-30T00:42:47.441Z,87.31
2023-03-30T00:45:25.753Z,87.65
2023-03-30T00:47:58.521Z,87.22
2023-03-30T00:50:35.134Z,87.46
2023-03-30T00:53:10.340Z,88.03
2023-03-30T00:55:41.334Z,87.80
2023-03-30T00:58:11.043Z,88.26
2023-03-30T01:00:45.146Z,88.17
2023-03-30T01:03:20.224Z,88.11
2023-03-30T01:05:49.046Z,88.42
2023-03-30T01:08:18.394Z,88.50
2023-03-30T01:10:46.470Z,88.98
2023-03-30T01:13:16.286Z,89.04
2023-03-30T01:15:58.867Z,88.33
2023-03-30T01:18:35.813Z,89.01
2023-03-30T01:21:36.188Z,88.51
2023-03-30T01:24:34.896Z,88.24
2023-03-30T01:27:13.052Z,88.73
2023-03-30T01:29:55.937Z,88.49
2023-03-30T01:32:46.336Z,88.69
2023-03-30T01:35:35.300Z,88.94
2023-03-30T01:38:41.765Z,89.09
2023-03-30T01:41:20.105Z,89.58
2023-03-30T01:43:57.530Z,89.31
2023-03-30T01:46:31.625Z,89.51
2023-03-30T01:49:09.370Z,89.60
2023-03-30T01:51:42.924Z,89.61
2023-03-30T01:54:15.627Z,90.49
2023-03-30T01:56:51.032Z,90.11
2023-03-30T01:59:25.435Z,90.54
2023-03-30T02:02:00.598Z,90.53
2023-03-30T02:04:32.114Z,90.47
2023-03-30T02:07:04.462Z,90.26
2023-03-30T02:09:35.930Z,90.90
2023-03-30T02:12:07.846Z,90.94
2023-03-30T02:14:38.586Z,91.26
2023-03-30T02:17:11.506Z,91.56
2023-03-30T02:19:39.653Z,91.54
2023-03-30T02:22:08.891Z,91.48
2023-03-30T02:24:38.114Z,92.07
2023-03-30T02:27:08.040Z,91.87
2023-03-30T02:29:38.640Z,91.71
2023-03-30T02:32:07.936Z,92.02
2023-03-30T02:34:53.268Z,92.49
2023-03-30T02:37:45.146Z,91.88
2023-03-30T02:40:32.229Z,92.15
2023-03-30T02:43:16.602Z,91.93
2023-03-30T02:45:53.615Z,92.94
2023-03-30T02:48:34.857Z,93.38
2023-03-30T02:51:22.828Z,93.41
2023-03-30T02:53:58.545Z,93.40
2023-03-30T02:56:37.620Z,93.54
2023-03-30T02:59:13.263Z,92.82
2023-03-30T03:01:45.401Z,93.79
2023-03-30T03:04:16.432Z,93.26
2023-03-30T03:06:45.024Z,93.01
2023-03-30T03:09:15.386Z,92.27
2023-03-30T03:11:43.399Z,92.96
2023-03-30T03:14:13.124Z,92.66
2023-03-30T03:16:41.118Z,92.99
2023-03-30T03:19:09.805Z,92.32
2023-03-30T03:21:38.005Z,91.53
2023-03-30T03:24:06.890Z,91.74
2023-03-30T03:26:35.071Z,91.53
2023-03-30T03:29:03.591Z,92.08
2023-03-30T03:31:33.107Z,92.96
2023-03-30T03:34:01.420Z,93.26
2023-03-30T03:36:30.893Z,93.86
2023-03-30T03:38:58.846Z,94.27
2023-03-30T03:41:27.004Z,93.88
2023-03-30T03:43:54.920Z,93.91
2023-03-30T03:46:23.130Z,94.04
2023-03-30T03:48:52.682Z,94.31
2023-03-30T03:51:23.074Z,94.32
2023-03-30T03:53:51.694Z,93.47
2023-03-30T03:56:19.762Z,93.53
2023-03-30T03:58:47.716Z,93.68
2023-03-30T04:01:15.785Z,92.93
2023-03-30T04:03:43.960Z,93.11
2023-03-30T04:06:13.333Z,92.77
2023-03-30T04:08:43.058Z,92.10
2023-03-30T04:11:13.681Z,92.76
2023-03-30T04:13:43.374Z,93.08
2023-03-30T04:16:11.652Z,93.28
2023-03-30T04:18:41.773Z,92.72
2023-03-30T04:21:13.146Z,93.05
2023-03-30T04:23:45.851Z,92.64
2023-03-30T04:26:15.624Z,92.43
2023-03-30T04:28:43.566Z,92.81
2023-03-30T04:31:13.157Z,92.12
2023-03-30T04:33:51.947Z,91.92
2023-03-30T04:36:21.287Z,91.71
2023-03-30T04:38:58.852Z,91.17
2023-03-30T04:41:33.619Z,91.43
2023-03-30T04:44:03.487Z,92.12
2023-03-30T04:46:31.783Z,91.29
2023-03-30T04:48:59.745Z,91.63
2023-03-30T04:51:28.222Z,91.21
2023-03-30T04:53:57.809Z,91.16
2023-03-30T04:56:26.287Z,90.93
2023-03-30T04:58:54.402Z,91.87
2023-03-30T05:01:22.648Z,91.54
2023-03-30T05:03:51.298Z,91.10
2023-03-30T05:06:19.570Z,89.94
2023-03-30T05:08:47.594Z,90.66
2023-03-30T05:11:17.196Z,91.13
2023-03-30T05:13:45.244Z,90.94
2023-03-30T05:16:13.446Z,90.55
2023-03-30T05:18:41.852Z,90.72
2023-03-30T05:21:09.822Z,90.81
2023-03-30T05:23:39.993Z,90.65
2023-03-30T05:26:09.051Z,90.41
2023-03-30T05:28:38.464Z,89.93
2023-03-30T05:31:07.480Z,89.59
2023-03-30T05:33:36.807Z,89.40
2023-03-30T05:36:06.317Z,89.30
2023-03-30T05:38:34.975Z,88.50
2023-03-30T05:41:05.133Z,88.61
2023-03-30T05:43:33.797Z,88.21
2023-03-30T05:46:05.560Z,87.46
2023-03-30T05:48:33.609Z,88.17
2023-03-30T05:51:02.634Z,87.92
2023-03-30T05:53:31.115Z,88.01
2023-03-30T05:55:59.302Z,87.30
2023-03-30T05:58:27.591Z,87.46
2023-03-30T06:00:59.400Z,86.61
2023-03-30T06:03:28.776Z,87.58
2023-03-30T06:05:56.941Z,88.31
2023-03-30T06:08:27.154Z,88.83
2023-03-30T06:10:56.206Z,89.36
2023-03-30T06:13:25.354Z,90.43
2023-03-30T06:15:53.445Z,91.03
2023-03-30T06:18:21.521Z,91.35
2023-03-30T06:20:51.839Z,91.56
2023-03-30T06:23:20.102Z,90.74
2023-03-30T06:25:53.070Z,90.76
2023-03-30T06:28:21.919Z,90.62
2023-03-30T06:30:50.585Z,89.68
2023-03-30T06:33:19.462Z,88.91
2023-03-30T06:35:48.879Z,89.01
2023-03-30T06:38:21.338Z,89.09
2023-03-30T06:40:51.392Z,88.37
2023-03-30T06:43:21.818Z,87.74
2023-03-30T06:45:54.091Z,87.08
2023-03-30T06:48:23.966Z,86.51
2023-03-30T06:50:52.624Z,86.30
2023-03-30T06:53:24.417Z,86.83
2023-03-30T06:55:56.975Z,86.25
2023-03-30T06:58:26.389Z,86.52
2023-03-30T07:00:54.905Z,86.50
2023-03-30T07:03:23.088Z,85.16
2023-03-30T07:05:52.664Z,84.85
2023-03-30T07:08:22.365Z,84.57
2023-03-30T07:10:51.596Z,84.18
2023-03-30T07:13:19.743Z,84.29
2023-03-30T07:15:48.411Z,84.20
2023-03-30T07:18:22.434Z,83.14
2023-03-30T07:20:51.293Z,83.03
2023-03-30T07:23:22.229Z,83.27
2023-03-30T07:25:50.289Z,83.03
2023-03-30T07:28:18.617Z,83.18
2023-03-30T07:30:47.221Z,83.30
2023-03-30T07:33:15.717Z,83.28
2023-03-30T07:35:47.328Z,82.28
2023-03-30T07:38:15.723Z,82.29
2023-03-30T07:40:45.325Z,81.64
2023-03-30T07:43:14.418Z,80.01
2023-03-30T07:45:42.589Z,78.79
2023-03-30T07:48:10.720Z,79.51
2023-03-30T07:50:38.888Z,79.37
2023-03-30T07:53:07.225Z,78.93
2023-03-30T07:55:35.283Z,77.94
2023-03-30T07:58:05.198Z,79.14
2023-03-30T08:00:33.205Z,78.25
2023-03-30T08:03:01.920Z,78.78
2023-03-30T08:05:29.979Z,78.89
2023-03-30T08:07:57.995Z,78.27
2023-03-30T08:10:25.989Z,78.48
2023-03-30T08:12:54.092Z,77.46
2023-03-30T08:15:23.525Z,75.52
2023-03-30T08:17:51.879Z,74.64
2023-03-30T08:20:20.196Z,75.29
2023-03-30T08:22:49.285Z,74.90
2023-03-30T08:25:18.914Z,75.68
2023-03-30T08:27:47.491Z,75.70
2023-03-30T08:30:18.025Z,75.11
2023-03-30T08:32:48.522Z,74.78
2023-03-30T08:35:17.807Z,73.51
2023-03-30T08:37:46.319Z,70.70
2023-03-30T08:40:17.918Z,66.07
2023-03-30T08:43:19.992Z,66.16
2023-03-30T08:45:48.998Z,68.66
2023-03-30T08:48:23.736Z,70.82
2023-03-30T08:50:57.544Z,73.99
2023-03-30T08:53:26.447Z,76.09
2023-03-30T08:56:02.527Z,75.78
2023-03-30T08:58:40.363Z,74.20
2023-03-30T09:01:20.299Z,73.47
2023-03-30T09:04:03.674Z,71.32
2023-03-30T09:06:45.007Z,70.89
2023-03-30T09:09:15.206Z,67.68
2023-03-30T09:11:43.875Z,63.98
2023-03-30T09:14:19.934Z,62.07
2023-03-30T09:16:53.913Z,62.45
2023-03-30T09:19:28.082Z,60.85
2023-03-30T09:21:58.093Z,59.23
2023-03-30T09:24:27.381Z,58.16
2023-03-30T09:27:00.919Z,56.77
2023-03-30T09:29:32.655Z,58.56
2023-03-30T09:32:06.967Z,59.99
2023-03-30T09:34:41.937Z,61.30
2023-03-30T09:37:13.702Z,62.63
2023-03-30T09:39:42.349Z,63.26
2023-03-30T09:42:20.246Z,65.18
2023-03-30T09:44:51.332Z,67.08
2023-03-30T09:47:26.576Z,67.38
2023-03-30T09:50:05.039Z,68.75
2023-03-30T09:52:37.512Z,69.20
2023-03-30T09:55:28.416Z,68.08
2023-03-30T09:58:13.210Z,67.64
2023-03-30T10:00:41.775Z,68.26
2023-03-30T10:03:21.015Z,67.76
2023-03-30T10:06:03.281Z,67.43
2023-03-30T10:08:32.601Z,63.58
2023-03-30T10:11:05.661Z,64.27
2023-03-30T10:13:36.861Z,64.07
2023-03-30T10:16:10.396Z,61.35
2023-03-30T10:18:41.889Z,60.91
2023-03-30T10:21:23.030Z,61.67
2023-03-30T10:24:01.496Z,61.58
2023-03-30T10:26:31.802Z,61.75
2023-03-30T10:29:06.228Z,61.00
2023-03-30T10:31:37.336Z,62.17
2023-03-30T10:34:08.427Z,62.63
2023-03-30T10:36:41.011Z,62.70
2023-03-30T10:39:15.362Z,63.19
2023-03-30T10:41:43.872Z,63.69
2023-03-30T10:44:25.628Z,64.23
2023-03-30T10:47:04.199Z,63.83
2023-03-30T10:49:44.474Z,63.11
2023-03-30T10:52:25.461Z,62.78
2023-03-30T10:54:58.637Z,63.25
2023-03-30T10:57:38.719Z,62.42
2023-03-30T11:00:26.098Z,62.20
2023-03-30T11:03:02.011Z,61.04
2023-03-30T11:05:34.090Z,61.78
2023-03-30T11:08:05.894Z,61.11
2023-03-30T11:10:38.463Z,61.15
2023-03-30T11:13:08.477Z,60.53
2023-03-30T11:15:42.837Z,60.05
2023-03-30T11:18:22.797Z,59.33
2023-03-30T11:20:57.998Z,58.01
2023-03-30T11:23:36.055Z,57.51
2023-03-30T11:26:08.758Z,56.93
2023-03-30T11:28:54.209Z,55.80
2023-03-30T11:31:40.884Z,55.62
2023-03-30T11:34:20.751Z,55.54
2023-03-30T11:36:57.255Z,55.57
2023-03-30T11:39:32.869Z,54.90
2023-03-30T11:42:09.540Z,53.28
2023-03-30T11:44:37.717Z,52.74
2023-03-30T11:47:28.983Z,52.12
2023-03-30T11:50:26.069Z,52.60
2023-03-30T11:53:08.562Z,52.01
2023-03-30T11:55:53.285Z,52.08
2023-03-30T11:58:31.160Z,52.87
2023-03-30T12:01:23.292Z,51.60
2023-03-30T12:03:54.619Z,52.14
2023-03-30T12:06:31.131Z,51.18
2023-03-30T12:09:14.185Z,51.82
2023-03-30T12:11:48.877Z,51.91
2023-03-30T12:14:41.897Z,52.24
2023-03-30T12:17:25.537Z,53.76
2023-03-30T12:19:59.925Z,54.65
2023-03-30T12:22:36.202Z,56.62
2023-03-30T12:25:16.451Z,59.70
2023-03-30T12:27:59.817Z,61.36
2023-03-30T12:30:31.591Z,64.03
2023-03-30T12:33:03.343Z,66.73
2023-03-30T12:35:53.807Z,68.67
2023-03-30T12:38:25.705Z,68.53
2023-03-30T12:41:14.852Z,68.51
2023-03-30T12:44:14.965Z,67.64
2023-03-30T12:46:58.455Z,67.09
2023-03-30T12:49:39.204Z,66.75
2023-03-30T12:52:14.365Z,66.81
2023-03-30T12:55:08.799Z,66.42
2023-03-30T12:57:53.185Z,66.27
2023-03-30T13:00:37.269Z,65.39
2023-03-30T13:03:21.596Z,64.22
2023-03-30T13:05:53.780Z,64.98
2023-03-30T13:08:28.157Z,64.66
2023-03-30T13:11:09.061Z,64.07
2023-03-30T13:13:56.077Z,63.44
2023-03-30T13:17:01.467Z,62.76
2023-03-30T13:19:44.059Z,63.29
2023-03-30T13:22:36.018Z,62.95
2023-03-30T13:25:28.483Z,61.52
2023-03-30T13:28:00.414Z,61.58
2023-03-30T13:30:30.689Z,60.33
2023-03-30T13:33:12.746Z,58.99
2023-03-30T13:35:54.261Z,58.64
2023-03-30T13:38:46.327Z,58.45
2023-03-30T13:41:28.534Z,57.12
2023-03-30T13:44:14.217Z,55.81
2023-03-30T13:46:51.415Z,55.91
2023-03-30T13:49:41.068Z,55.89
2023-03-30T13:52:15.779Z,55.78
2023-03-30T13:54:44.930Z,54.21
2023-03-30T13:57:15.860Z,54.84
2023-03-30T13:59:47.491Z,54.44
2023-03-30T14:02:17.604Z,54.06
2023-03-30T14:04:45.827Z,53.93
2023-03-30T14:07:18.419Z,53.67
2023-03-30T14:10:04.718Z,52.76
2023-03-30T14:12:39.704Z,51.37
2023-03-30T14:15:18.682Z,50.26
2023-03-30T14:17:52.893Z,50.13
2023-03-30T14:20:37.240Z,50.16
2023-03-30T14:23:07.266Z,49.89
2023-03-30T14:25:39.784Z,49.89
2023-03-30T14:28:15.350Z,50.35
2023-03-30T14:30:51.582Z,50.94
2023-03-30T14:33:19.727Z,50.80
2023-03-30T14:35:50.849Z,50.79
2023-03-30T14:38:24.055Z,50.82
2023-03-30T14:40:53.433Z,50.48
2023-03-30T14:43:24.814Z,51.15
2023-03-30T14:45:53.881Z,50.43
2023-03-30T14:48:26.822Z,49.75
2023-03-30T14:50:55.241Z,49.39
2023-03-30T14:53:28.387Z,48.23
2023-03-30T14:55:58.420Z,48.70
2023-03-30T14:58:28.701Z,48.92
2023-03-30T15:00:59.043Z,49.05
2023-03-30T15:03:34.058Z,49.46
2023-03-30T15:06:03.592Z,49.41
2023-03-30T15:08:39.594Z,49.57
2023-03-30T15:11:10.723Z,50.33
2023-03-30T15:13:43.718Z,50.17
2023-03-30T15:16:16.980Z,51.04
2023-03-30T15:18:45.571Z,51.36
2023-03-30T15:21:15.581Z,51.43
2023-03-30T15:23:47.673Z,51.44
2023-03-30T15:26:16.041Z,51.05
2023-03-30T15:28:48.366Z,50.89
2023-03-30T15:31:17.334Z,50.87
2023-03-30T15:33:46.828Z,51.25
2023-03-30T15:36:20.176Z,51.42
2023-03-30T15:38:52.273Z,51.66
2023-03-30T15:41:23.813Z,52.37
2023-03-30T15:44:00.505Z,55.46
2023-03-30T15:46:29.141Z,58.53
2023-03-30T15:48:59.510Z,61.04
2023-03-30T15:51:33.256Z,62.77
2023-03-30T15:54:04.344Z,64.28
2023-03-30T15:56:37.935Z,64.53
2023-03-30T15:59:06.940Z,64.63
2023-03-30T16:01:44.206Z,64.87
2023-03-30T16:04:15.265Z,65.51
2023-03-30T16:06:44.583Z,65.69
2023-03-30T16:09:16.085Z,66.55
2023-03-30T16:11:46.995Z,66.42
2023-03-30T16:14:20.292Z,67.01
2023-03-30T16:16:51.441Z,67.75
2023-03-30T16:19:21.122Z,68.50
2023-03-30T16:21:49.101Z,68.33
2023-03-30T16:24:18.869Z,68.65
2023-03-30T16:26:47.595Z,69.04
2023-03-30T16:29:21.607Z,68.67
2023-03-30T16:31:49.737Z,69.14
2023-03-30T16:34:18.148Z,69.86
2023-03-30T16:36:48.062Z,69.61
2023-03-30T16:39:20.445Z,69.93
2023-03-30T16:41:49.545Z,70.21
2023-03-30T16:44:18.086Z,69.81
2023-03-30T16:46:46.793Z,69.57
2023-03-30T16:49:16.639Z,69.75
2023-03-30T16:51:44.874Z,68.91
2023-03-30T16:54:27.273Z,69.15
2023-03-30T16:57:00.618Z,68.13
2023-03-30T16:59:33.098Z,67.49
2023-03-30T17:02:02.498Z,67.45
2023-03-30T17:04:30.534Z,67.07
2023-03-30T17:06:58.926Z,66.77
2023-03-30T17:09:27.419Z,66.73
2023-03-30T17:11:55.452Z,66.37
2023-03-30T17:14:25.012Z,66.24
2023-03-30T17:16:53.043Z,65.86
2023-03-30T17:19:21.052Z,66.87
2023-03-30T17:21:49.139Z,67.29
2023-03-30T17:24:17.250Z,67.27
2023-03-30T17:26:45.509Z,67.77
2023-03-30T17:29:13.610Z,67.13
2023-03-30T17:31:45.925Z,67.49
2023-03-30T17:34:15.799Z,67.61
2023-03-30T17:36:44.209Z,67.99
2023-03-30T17:39:15.394Z,67.27
2023-03-30T17:41:43.878Z,67.51
2023-03-30T17:44:11.795Z,67.46
2023-03-30T17:46:42.791Z,68.06
2023-03-30T17:49:17.895Z,68.59
2023-03-30T17:51:46.272Z,68.02
2023-03-30T17:54:17.451Z,68.75
2023-03-30T17:56:45.720Z,68.76
2023-03-30T17:59:14.152Z,69.02
2023-03-30T18:01:42.397Z,69.33
2023-03-30T18:04:10.689Z,69.23
2023-03-30T18:06:40.710Z,69.71
2023-03-30T18:09:16.135Z,69.48
2023-03-30T18:11:44.090Z,69.96
2023-03-30T18:14:12.685Z,69.77
2023-03-30T18:16:43.801Z,69.51
2023-03-30T18:19:13.620Z,69.02
2023-03-30T18:21:43.581Z,68.70
2023-03-30T18:24:11.742Z,69.02
2023-03-30T18:26:41.529Z,68.96
2023-03-30T18:29:20.316Z,68.93
2023-03-30T18:31:48.702Z,68.75
2023-03-30T18:34:17.183Z,69.87
2023-03-30T18:36:46.901Z,70.56
2023-03-30T18:39:19.728Z,71.61
2023-03-30T18:41:50.340Z,72.39
2023-03-30T18:44:18.569Z,73.66
2023-03-30T18:46:51.335Z,75.29
2023-03-30T18:49:24.386Z,75.63
2023-03-30T18:51:53.931Z,75.86
2023-03-30T18:54:21.958Z,75.68
2023-03-30T18:56:50.125Z,75.49
2023-03-30T18:59:23.029Z,75.95
2023-03-30T19:01:51.146Z,76.02
2023-03-30T19:04:19.498Z,76.23
2023-03-30T19:06:48.306Z,76.21
2023-03-30T19:09:17.877Z,76.20
2023-03-30T19:11:45.949Z,75.82
2023-03-30T19:14:16.766Z,75.98
2023-03-30T19:16:45.006Z,76.88
2023-03-30T19:19:15.509Z,77.05
2023-03-30T19:21:46.216Z,76.83
2023-03-30T19:24:14.545Z,77.02
2023-03-30T19:26:43.895Z,77.29
2023-03-30T19:29:13.066Z,77.78
2023-03-30T19:31:41.037Z,77.52
2023-03-30T19:34:09.369Z,78.20
2023-03-30T19:36:37.390Z,78.21
2023-03-30T19:39:05.517Z,77.43
2023-03-30T19:41:36.634Z,77.26
2023-03-30T19:44:06.464Z,77.04
2023-03-30T19:46:39.803Z,76.72
2023-03-30T19:49:08.887Z,75.93
2023-03-30T19:51:37.076Z,76.62
2023-03-30T19:54:05.191Z,76.74
2023-03-30T19:56:37.505Z,79.06
2023-03-30T19:59:09.111Z,79.59
2023-03-30T20:01:37.751Z,79.91
2023-03-30T20:04:06.617Z,81.25
2023-03-30T20:06:35.975Z,82.10
2023-03-30T20:09:05.529Z,82.30
2023-03-30T20:11:37.112Z,81.81
2023-03-30T20:14:07.599Z,82.59
2023-03-30T20:16:35.770Z,82.69
2023-03-30T20:19:12.996Z,82.48
2023-03-30T20:21:47.171Z,83.26
2023-03-30T20:24:15.299Z,83.81
2023-03-30T20:26:43.275Z,83.64
2023-03-30T20:29:15.555Z,83.67
2023-03-30T20:31:44.589Z,84.10
2023-03-30T20:34:14.563Z,83.88
2023-03-30T20:36:43.118Z,84.54
2023-03-30T20:39:14.147Z,85.03
2023-03-30T20:41:42.655Z,84.62
2023-03-30T20:44:12.559Z,83.83
2023-03-30T20:46:45.906Z,84.70
2023-03-30T20:49:14.421Z,85.22
2023-03-30T20:51:45.152Z,85.40
2023-03-30T20:54:14.774Z,85.18
2023-03-30T20:56:43.182Z,85.80
2023-03-30T20:59:11.861Z,87.09
2023-03-30T21:01:41.576Z,87.23
2023-03-30T21:04:09.519Z,87.01
2023-03-30T21:06:37.686Z,86.73
2023-03-30T21:09:08.771Z,86.54
2023-03-30T21:11:39.886Z,87.60
2023-03-30T21:14:09.401Z,88.59
2023-03-30T21:16:38.044Z,88.47
2023-03-30T21:19:07.478Z,88.90
2023-03-30T21:21:37.458Z,89.41
2023-03-30T21:24:06.361Z,90.03
2023-03-30T21:26:34.446Z,89.48
2023-03-30T21:29:02.741Z,90.04
2023-03-30T21:31:30.855Z,89.99
2023-03-30T21:33:58.943Z,90.09
2023-03-30T21:36:28.674Z,90.21
2023-03-30T21:38:58.919Z,90.80
2023-03-30T21:41:28.901Z,90.87
2023-03-30T21:43:57.359Z,90.82
2023-03-30T21:46:26.984Z,90.27
2023-03-30T21:48:55.924Z,90.41
2023-03-30T21:51:26.386Z,90.30
2023-03-30T21:53:58.160Z,90.28
2023-03-30T21:56:28.990Z,90.41
2023-03-30T21:58:57.500Z,89.75
2023-03-30T22:01:26.344Z,90.47
2023-03-30T22:03:55.003Z,91.86
2023-03-30T22:06:23.791Z,91.15
2023-03-30T22:08:51.924Z,91.85
2023-03-30T22:11:23.391Z,91.86
2023-03-30T22:13:52.372Z,91.41
2023-03-30T22:16:22.484Z,93.50
2023-03-30T22:18:51.733Z,94.04
2023-03-30T22:21:24.104Z,95.00
2023-03-30T22:23:54.569Z,95.49
2023-03-30T22:26:24.347Z,95.87
2023-03-30T22:28:52.460Z,95.43
2023-03-30T22:31:20.510Z,93.83
2023-03-30T22:33:48.548Z,93.73
2023-03-30T22:36:19.488Z,92.56
2023-03-30T22:38:48.299Z,92.58
2023-03-30T22:41:16.726Z,92.15
2023-03-30T22:43:46.958Z,91.88
2023-03-30T22:46:15.089Z,92.19
2023-03-30T22:48:45.216Z,92.02
2023-03-30T22:51:15.302Z,92.03
2023-03-30T22:53:43.396Z,91.93
2023-03-30T22:56:11.821Z,91.88
2023-03-30T22:58:39.985Z,91.40
2023-03-30T23:01:13.600Z,91.29
2023-03-30T23:03:41.707Z,91.13
2023-03-30T23:06:09.949Z,92.08
2023-03-30T23:08:39.309Z,91.39
2023-03-30T23:11:08.466Z,91.30
2023-03-30T23:13:38.418Z,91.80
2023-03-30T23:16:08.438Z,93.20
2023-03-30T23:18:38.889Z,92.51
2023-03-30T23:21:08.798Z,93.07
2023-03-30T23:23:37.851Z,93.22
2023-03-30T23:26:09.167Z,92.75
2023-03-30T23:28:39.870Z,92.70
2023-03-30T23:31:10.024Z,93.83
2023-03-30T23:33:42.818Z,93.46
2023-03-30T23:36:13.958Z,93.01
2023-03-30T23:38:42.697Z,93.85
2023-03-30T23:41:13.397Z,93.14
2023-03-30T23:43:41.728Z,93.51
2023-03-30T23:46:11.104Z,93.75
2023-03-30T23:48:42.108Z,94.33
2023-03-30T23:51:10.772Z,94.43
2023-03-30T23:53:40.440Z,93.76
2023-03-30T23:56:13.089Z,92.93
2023-03-30T23:58:41.838Z,93.01
